Flight Track Log - Related Links

Times and Time Zones

All times are in EDT time to prevent confusion due to time zone crossing. See the BER7023 flight status page for this flight to view local times or setup timezone preferences in your user account.


Time Position Orientation Groundspeed Altitude Reporting Facility
EDT Latitude Longitude Course Direction KTS MPH feet Rate Location/Type
Mon 06:59:55 PM 33.9460 -118.4410 262° West 158 182 1,000  Level FlightAware ADS-B
Mon 07:00:30 PM 33.9430 -118.4720 263° West 183 211 1,700 923 Climbing FlightAware ADS-B
Mon 07:01:00 PM 33.9420 -118.5070 268° West 221 254 2,000 655 Climbing FlightAware ADS-B
Mon 07:01:25 PM 33.9390 -118.5380 263° West 249 287 2,300 1,440 Climbing FlightAware ADS-B
Mon 07:01:50 PM 33.9370 -118.5720 266° West 257 296 3,200 2,182 Climbing FlightAware ADS-B
Mon 07:02:20 PM 33.9340 -118.6130 265° West 260 299 4,300 2,182 Climbing FlightAware ADS-B
Mon 07:02:45 PM 33.9310 -118.6530 265° West 264 304 5,200 2,308 Climbing FlightAware ADS-B
Mon 07:03:12 PM 33.9300 -118.7030 269° West 271 312 6,300 2,308 Climbing FlightAware ADS-B
Mon 07:03:24 PM 33.9370 -118.7200 296° West 272 313 6,700 1,929 Climbing FlightAware ADS-B
Mon 07:03:40 PM 33.9520 -118.7350 320° Northwest 275 316 7,200 1,714 Climbing FlightAware ADS-B
Mon 07:03:52 PM 33.9680 -118.7390 348° North 280 322 7,500 1,167 Climbing FlightAware ADS-B
Mon 07:04:16 PM 33.9980 -118.7290 15° North 289 333 7,900 698 Climbing FlightAware ADS-B
Mon 07:04:35 PM 34.0200 -118.7140 29° Northeast 290 334 8,000 133 Climbing FlightAware ADS-B
Mon 07:05:01 PM 34.0510 -118.6940 28° Northeast 292 336 8,000  Level FlightAware ADS-B
Mon 07:05:26 PM 34.0760 -118.6770 29° Northeast 292 336 8,000 67 Level FlightAware ADS-B
Mon 07:06:30 PM 34.1270 -118.6850 353° North 274 315 8,100 68 Climbing FlightAware ADS-B
Mon 07:06:54 PM 34.1430 -118.7090 309° West 274 315 8,100 2,432 Level FlightAware ADS-B
Mon 07:07:09 PM 34.2030 -118.6120 53° Northeast 10,400 3,600 Climbing FlightAware ADS-B
Mon 07:07:44 PM 34.2600 -118.6150 358° North 301 346 11,100 1,063 Climbing FlightAware ADS-B
Mon 07:08:28 PM 34.3200 -118.6210 355° North 306 352 11,800 988 Climbing FlightAware ADS-B
Mon 07:09:09 PM 34.3730 -118.6480 337° Northwest 322 371 12,500 833 Climbing FlightAware ADS-B
Mon 07:09:40 PM 34.4180 -118.6700 338° Northwest 344 396 12,800 701 Climbing FlightAware ADS-B
Mon 07:10:26 PM 34.4910 -118.7060 338° Northwest 380 437 13,400 674 Climbing FlightAware ADS-B
Mon 07:11:09 PM 34.5530 -118.7370 338° Northwest 383 441 13,800 304 Climbing FlightAware ADS-B
Mon 07:11:45 PM 34.6030 -118.7630 337° Northwest 383 441 13,800 2,000 Level FlightAware ADS-B
Mon 07:12:24 PM 34.6920 -118.8050 339° North 404 465 16,300 2,519 Climbing FlightAware ADS-B
Mon 07:13:06 PM 34.7640 -118.8410 338° Northwest 412 474 17,200 1,347 Climbing FlightAware ADS-B
Mon 07:14:02 PM 34.8650 -118.8820 342° North 419 482 18,500 1,018 Climbing FlightAware ADS-B
Mon 07:14:58 PM 34.9630 -118.9160 344° North 425 489 19,100 1,347 Climbing FlightAware ADS-B
Mon 07:15:40 PM 35.0500 -118.9460 344° North 427 491 20,700 1,650 Climbing FlightAware ADS-B
Mon 07:16:18 PM 35.1250 -118.9720 344° North 435 501 21,300 1,100 Climbing FlightAware ADS-B
Mon 07:17:40 PM 35.2840 -119.0270 344° North 442 509 22,900 1,100 Climbing FlightAware ADS-B
Mon 07:18:18 PM 35.3580 -119.0530 344° North 447 514 23,500 929 Climbing FlightAware ADS-B
Mon 07:19:04 PM 35.4530 -119.0860 344° North 453 521 24,200 933 Climbing FlightAware ADS-B
Mon 07:19:48 PM 35.5440 -119.1060 350° North 456 525 24,900 857 Climbing FlightAware ADS-B
Mon 07:20:28 PM 35.6280 -119.1220 351° North 462 532 25,400 732 Climbing FlightAware ADS-B
Mon 07:21:10 PM 35.7010 -119.1840 325° Northwest 468 539 25,900 692 Climbing FlightAware ADS-B
Mon 07:21:46 PM 35.7490 -119.2570 309° West 472 543 26,300 711 Climbing FlightAware ADS-B
Mon 07:22:26 PM 35.7990 -119.3500 304° West 474 545 26,800 951 Climbing FlightAware ADS-B
Mon 07:23:08 PM 35.8520 -119.4370 307° West 469 540 27,600 1,077 Climbing FlightAware ADS-B
Mon 07:23:44 PM 35.9200 -119.4890 328° Northwest 463 533 28,200 632 Climbing FlightAware ADS-B
Mon 07:24:24 PM 35.9970 -119.5390 332° Northwest 470 541 28,400 500 Climbing FlightAware ADS-B
Mon 07:25:08 PM 36.0860 -119.5760 341° North 466 536 28,900 643 Climbing FlightAware ADS-B
Mon 07:25:48 PM 36.1740 -119.5770 359° North 470 541 29,300 439 Climbing FlightAware ADS-B
Mon 07:26:30 PM 36.2640 -119.5800 358° North 475 547 29,500 628 Climbing FlightAware ADS-B
Mon 07:27:14 PM 36.3600 -119.5820 359° North 471 542 30,200 857 Climbing FlightAware ADS-B
Mon 07:27:54 PM 36.4450 -119.5830 359° North 469 540 30,700 1,385 Climbing FlightAware ADS-B
Mon 07:28:32 PM 36.5280 -119.5850 359° North 447 514 32,000 1,538 Climbing FlightAware ADS-B
Mon 07:29:12 PM 36.6110 -119.5870 359° North 439 505 32,700 786 Climbing FlightAware ADS-B
Mon 07:29:56 PM 36.6990 -119.5890 359° North 439 505 33,100 525 Climbing FlightAware ADS-B
Mon 07:30:32 PM 36.7730 -119.5910 359° North 443 510 33,400 316 Climbing FlightAware ADS-B
Mon 07:31:12 PM 36.8530 -119.5920 359° North 449 517 33,500 214 Climbing FlightAware ADS-B
Mon 07:31:56 PM 36.9470 -119.5940 359° North 453 521 33,700 357 Climbing FlightAware ADS-B
Mon 07:32:36 PM 37.0310 -119.5960 359° North 458 527 34,000 225 Climbing FlightAware ADS-B
Mon 07:33:16 PM 37.1180 -119.5980 359° North 466 536 34,000  Level FlightAware ADS-B
Mon 07:34:00 PM 37.2130 -119.6010 359° North 475 547 34,000  Level FlightAware ADS-B
Mon 07:34:38 PM 37.2970 -119.6030 359° North 480 552 34,000  Level FlightAware ADS-B
Mon 07:35:24 PM 37.3980 -119.6050 359° North 477 549 34,000  Level FlightAware ADS-B
Mon 07:36:04 PM 37.4880 -119.6070 359° North 476 548 34,000  Level FlightAware ADS-B
Mon 07:36:50 PM 37.5870 -119.6090 359° North 477 549 34,000  Level FlightAware ADS-B
Mon 07:37:30 PM 37.6780 -119.6110 359° North 476 548 34,000  Level FlightAware ADS-B
Mon 07:38:08 PM 37.7610 -119.6130 359° North 479 551 34,000  Level FlightAware ADS-B
Mon 07:38:54 PM 37.8620 -119.6160 359° North 480 552 34,000  Level FlightAware ADS-B
Mon 07:39:35 PM 37.9520 -119.6180 359° North 479 551 34,000  Level FlightAware ADS-B
Mon 07:40:16 PM 38.0460 -119.6200 359° North 480 552 34,000  Level FlightAware ADS-B
Mon 07:41:01 PM 38.1430 -119.6220 359° North 481 554 34,000  Level FlightAware ADS-B
Mon 07:41:40 PM 38.2310 -119.6240 359° North 481 554 34,000  Level FlightAware ADS-B
Mon 07:42:18 PM 38.3170 -119.6270 358° North 482 555 34,000  Level FlightAware ADS-B
Mon 07:43:07 PM 38.4250 -119.6290 359° North 484 557 34,000  Level FlightAware ADS-B
Mon 07:43:47 PM 38.5170 -119.6310 359° North 485 558 34,000  Level FlightAware ADS-B
Mon 07:44:31 PM 38.6150 -119.6340 359° North 484 557 34,000  Level FlightAware ADS-B
Mon 07:45:11 PM 38.7040 -119.6360 359° North 484 557 34,000  Level FlightAware ADS-B
Mon 07:45:53 PM 38.7980 -119.6380 359° North 484 557 34,000  Level FlightAware ADS-B
Mon 07:46:37 PM 38.8970 -119.6400 359° North 485 558 34,000  Level FlightAware ADS-B
Mon 07:47:17 PM 38.9860 -119.6430 358° North 486 559 34,000  Level FlightAware ADS-B
Mon 07:48:01 PM 39.0850 -119.6450 359° North 486 559 34,000  Level FlightAware ADS-B
Mon 07:48:53 PM 39.1980 -119.6410 North 488 562 34,000 65 Level FlightAware ADS-B
Mon 07:49:33 PM 39.2860 -119.5980 21° North 489 563 34,100 300 Climbing FlightAware ADS-B
Mon 07:50:13 PM 39.3720 -119.5560 21° North 492 566 34,400 525 Climbing FlightAware ADS-B
Mon 07:50:53 PM 39.4570 -119.5130 21° North 491 565 34,800 615 Climbing FlightAware ADS-B
Mon 07:51:31 PM 39.5360 -119.4730 21° North 490 564 35,200 462 Climbing FlightAware ADS-B
Mon 07:52:11 PM 39.6220 -119.4300 21° North 493 567 35,400 357 Climbing FlightAware ADS-B
Mon 07:52:55 PM 39.7150 -119.3840 21° North 493 567 35,700 434 Climbing FlightAware ADS-B
Mon 07:53:34 PM 39.7970 -119.3420 21° North 493 567 36,000 214 Climbing FlightAware ADS-B
Mon 07:54:19 PM 39.8950 -119.2930 21° North 494 568 36,000  Level FlightAware ADS-B
Mon 07:54:59 PM 39.9810 -119.2500 21° North 495 570 36,000  Level FlightAware ADS-B
Mon 07:55:41 PM 40.0700 -119.2040 22° Northeast 497 572 36,000  Level FlightAware ADS-B
Mon 07:56:22 PM 40.1570 -119.1600 21° North 496 571 36,000  Level FlightAware ADS-B
Mon 07:57:06 PM 40.2500 -119.1120 21° North 498 573 36,000  Level FlightAware ADS-B
Mon 07:57:46 PM 40.3370 -119.0680 21° North 498 573 36,000  Level FlightAware ADS-B
Mon 07:58:30 PM 40.4310 -119.0200 21° North 498 573 36,000  Level FlightAware ADS-B
Mon 07:59:10 PM 40.5140 -118.9770 21° North 497 572 36,000  Level FlightAware ADS-B
Mon 07:59:49 PM 40.5850 -118.9410 21° North 497 572 36,000  Level FlightAware ADS-B
Mon 08:00:39 PM 40.6770 -118.8950 21° North 497 572 36,000  Level FlightAware ADS-B
Mon 08:01:28 PM 40.7660 -118.8490 21° North 497 572 36,000  Level FlightAware ADS-B
Mon 08:02:16 PM 40.8540 -118.8050 21° North 497 572 36,000  Level FlightAware ADS-B
Mon 08:02:52 PM 40.9190 -118.7710 22° Northeast 497 572 36,000  Level FlightAware ADS-B
Mon 08:03:26 PM 40.9810 -118.7400 21° North 497 572 36,000  Level FlightAware ADS-B
Mon 08:04:04 PM 41.0510 -118.7050 21° North 497 572 36,000  Level FlightAware ADS-B
Mon 08:04:52 PM 41.1380 -118.6600 21° North 497 572 36,000  Level FlightAware ADS-B
Mon 08:05:29 PM 41.2060 -118.6260 21° North 497 572 36,000  Level FlightAware ADS-B
Mon 08:06:19 PM 41.4430 -118.4650 27° Northeast 519 597 36,000  Level FlightAware ADS-B
Mon 08:07:00 PM 41.5170 -118.3880 38° Northeast 521 600 36,000  Level FlightAware ADS-B
Mon 08:07:40 PM 41.5960 -118.3070 37° Northeast 523 602 36,000  Level FlightAware ADS-B
Mon 08:08:16 PM 41.6650 -118.2360 38° Northeast 522 601 36,000  Level FlightAware ADS-B
Mon 08:09:00 PM 41.7490 -118.1480 38° Northeast 521 600 36,000  Level FlightAware ADS-B
Mon 08:09:40 PM 41.8240 -118.0700 38° Northeast 522 601 36,000  Level FlightAware ADS-B
Mon 08:10:19 PM 41.8950 -117.9950 38° Northeast 522 601 36,000  Level FlightAware ADS-B
Mon 08:10:56 PM 41.9690 -117.9170 38° Northeast 521 600 36,000  Level FlightAware ADS-B
Mon 08:11:36 PM 42.0460 -117.8360 38° Northeast 521 600 36,000  Level FlightAware ADS-B
Mon 08:12:19 PM 42.1270 -117.7500 38° Northeast 522 601 36,000  Level FlightAware ADS-B
Mon 08:13:03 PM 42.2090 -117.6620 38° Northeast 523 602 36,000  Level FlightAware ADS-B
Mon 08:13:47 PM 42.2940 -117.5720 38° Northeast 521 600 36,000  Level FlightAware ADS-B
Mon 08:14:27 PM 42.3690 -117.4910 39° Northeast 522 601 36,000  Level FlightAware ADS-B
Mon 08:15:11 PM 42.4510 -117.4030 38° Northeast 521 600 36,000  Level FlightAware ADS-B
Mon 08:15:51 PM 42.5280 -117.3210 38° Northeast 521 600 36,000  Level FlightAware ADS-B
Mon 08:16:35 PM 42.6110 -117.2320 38° Northeast 521 600 36,000  Level FlightAware ADS-B
Mon 08:17:15 PM 42.6860 -117.1500 39° Northeast 521 600 36,000  Level FlightAware ADS-B
Mon 08:17:59 PM 42.7680 -117.0610 39° Northeast 519 597 36,000  Level FlightAware ADS-B
Mon 08:18:40 PM 42.8450 -116.9770 39° Northeast 520 598 36,000  Level FlightAware ADS-B
Mon 08:19:20 PM 42.9200 -116.8950 39° Northeast 521 600 36,000  Level FlightAware ADS-B
Mon 08:20:06 PM 43.0060 -116.8000 39° Northeast 520 598 36,000  Level FlightAware ADS-B
Mon 08:20:42 PM 43.0740 -116.7250 39° Northeast 520 598 36,000  Level FlightAware ADS-B
Mon 08:21:30 PM 43.1640 -116.6260 39° Northeast 521 600 36,000  Level FlightAware ADS-B
Mon 08:22:10 PM 43.2390 -116.5430 39° Northeast 518 596 36,000  Level FlightAware ADS-B
Mon 08:22:44 PM 43.3020 -116.4730 39° Northeast 519 597 36,000  Level FlightAware ADS-B
Mon 08:23:26 PM 43.3800 -116.3860 39° Northeast 520 598 36,000  Level FlightAware ADS-B
Mon 08:24:10 PM 43.4600 -116.2950 40° Northeast 520 598 36,000  Level FlightAware ADS-B
Mon 08:24:42 PM 43.5230 -116.2300 37° Northeast 516 594 36,000  Level FlightAware ADS-B
Mon 08:25:28 PM 43.6160 -116.1560 30° Northeast 509 586 36,000  Level FlightAware ADS-B
Mon 08:26:08 PM 43.7040 -116.1070 22° Northeast 504 580 36,000  Level FlightAware ADS-B
Mon 08:26:52 PM 43.8010 -116.0620 19° North 501 577 36,000  Level FlightAware ADS-B
Mon 08:27:31 PM 43.8850 -116.0200 20° North 502 578 36,000  Level FlightAware ADS-B
Mon 08:28:16 PM 43.9830 -115.9690 21° North 500 575 36,000  Level FlightAware ADS-B
Mon 08:28:56 PM 44.0690 -115.9240 21° North 502 578 36,000  Level FlightAware ADS-B
Mon 08:29:32 PM 44.1470 -115.8830 21° North 500 575 36,000  Level FlightAware ADS-B
Mon 08:30:12 PM 44.2350 -115.8360 21° North 498 573 36,000  Level FlightAware ADS-B
Mon 08:30:56 PM 44.3270 -115.7880 20° North 494 568 36,000  Level FlightAware ADS-B
Mon 08:31:28 PM 44.3960 -115.7510 21° North 493 567 36,000  Level FlightAware ADS-B
Mon 08:32:09 PM 44.4820 -115.7060 20° North 493 567 36,000  Level FlightAware ADS-B
Mon 08:32:54 PM 44.5790 -115.6540 21° North 496 571 36,000  Level FlightAware ADS-B
Mon 08:33:37 PM 44.6730 -115.6040 21° North 496 571 36,000  Level FlightAware ADS-B
Mon 08:34:17 PM 44.7600 -115.5570 21° North 496 571 36,000  Level FlightAware ADS-B
Mon 08:35:01 PM 44.8530 -115.5070 21° North 498 573 36,000  Level FlightAware ADS-B
Mon 08:35:41 PM 44.9380 -115.4610 21° North 496 571 36,000  Level FlightAware ADS-B
Mon 08:36:21 PM 45.0250 -115.4140 21° North 496 571 36,000  Level FlightAware ADS-B
Mon 08:37:05 PM 45.1200 -115.3620 21° North 501 577 36,000  Level FlightAware ADS-B
Mon 08:37:47 PM 45.2090 -115.3140 21° North 498 573 36,000  Level FlightAware ADS-B
Mon 08:38:31 PM 45.3040 -115.2620 21° North 497 572 36,000  Level FlightAware ADS-B
Mon 08:39:09 PM 45.3850 -115.2180 21° North 497 572 36,000  Level FlightAware ADS-B
Mon 08:40:08 PM 45.5030 -115.1520 21° North 496 571 36,000  Level FlightAware ADS-B
Mon 08:40:44 PM 45.5690 -115.1160 21° North 496 571 36,000  Level FlightAware ADS-B
Mon 08:41:21 PM 45.6360 -115.0790 21° North 496 571 36,000  Level FlightAware ADS-B
Mon 08:42:09 PM 45.7240 -115.0310 21° North 496 571 36,000  Level FlightAware ADS-B
Mon 08:42:45 PM 45.7890 -114.9950 21° North 496 571 36,000  Level FlightAware ADS-B
Mon 08:43:34 PM 45.8780 -114.9460 21° North 496 571 36,000  Level FlightAware ADS-B
Mon 08:44:10 PM 45.9440 -114.9100 21° North 496 571 36,000  Level FlightAware ADS-B
Mon 08:45:10 PM 46.0530 -114.8500 21° North 496 571 36,000  Level FlightAware ADS-B
Mon 08:45:46 PM 46.1190 -114.8130 21° North 496 571 36,000  Level FlightAware ADS-B
Mon 08:46:22 PM 46.1840 -114.7770 21° North 496 571 36,000  Level FlightAware ADS-B
Mon 08:47:11 PM 46.2730 -114.7270 21° North 496 571 36,000  Level FlightAware ADS-B
Mon 08:47:35 PM 46.3170 -114.7030 21° North 496 571 36,000  Level FlightAware ADS-B
Mon 08:48:23 PM 46.4040 -114.6550 21° North 496 571 36,000  Level FlightAware ADS-B
Mon 08:48:59 PM 46.4700 -114.6180 21° North 496 571 36,000  Level FlightAware ADS-B
Mon 08:50:15 PM 46.7786 -114.4306 21° North 486 559 36,000  Level Salt Lake Center
Mon 08:51:16 PM 46.9061 -114.3572 21° North 493 567 36,000  Level Salt Lake Center
Mon 08:52:18 PM 47.0331 -114.2836 22° Northeast 494 568 36,000  Level Salt Lake Center
Mon 08:58:36 PM 47.8400 -113.7990 22° Northeast 488 562 36,000  Level FlightAware ADS-B
Mon 08:59:17 PM 47.9130 -113.7550 22° Northeast 487 560 36,000  Level FlightAware ADS-B
Mon 08:59:53 PM 47.9770 -113.7170 22° Northeast 487 560 36,000  Level FlightAware ADS-B
Mon 09:00:39 PM 48.0590 -113.6670 22° Northeast 487 560 36,000  Level FlightAware ADS-B
Mon 09:01:15 PM 48.1230 -113.6290 22° Northeast 487 560 36,000  Level FlightAware ADS-B
Mon 09:01:51 PM 48.1870 -113.5900 22° Northeast 487 560 36,000  Level FlightAware ADS-B
Mon 09:02:39 PM 48.2720 -113.5380 22° Northeast 487 560 36,000  Level FlightAware ADS-B
Mon 09:03:16 PM 48.3370 -113.4980 22° Northeast 487 560 36,000  Level FlightAware ADS-B
Mon 09:04:01 PM 48.5180 -113.3820 23° Northeast 36,000  Level FlightAware ADS-B
Mon 09:04:42 PM 48.5920 -113.3370 22° Northeast 485 558 36,000  Level FlightAware ADS-B
Mon 09:05:30 PM 48.6770 -113.2850 22° Northeast 485 558 36,000  Level FlightAware ADS-B
Mon 09:06:06 PM 48.7750 -113.2210 23° Northeast 475 547 36,000  Level FlightAware ADS-B
Mon 09:06:45 PM 48.8540 -113.1710 23° Northeast 475 547 36,000  Level FlightAware ADS-B
Mon 09:07:21 PM 48.9290 -113.1230 23° Northeast 476 548 36,000  Level FlightAware ADS-B
Mon 09:08:06 PM 49.0220 -113.0640 23° Northeast 474 545 36,000 75 Level FlightAware ADS-B
Mon 09:08:41 PM 49.0870 -113.0230 22° Northeast 485 558 36,100 560 Climbing FlightAware ADS-B
Mon 09:09:21 PM 49.1750 -112.9660 23° Northeast 475 547 36,700 675 Climbing FlightAware ADS-B
Mon 09:10:01 PM 49.2510 -112.9170 23° Northeast 474 545 37,000 225 Climbing FlightAware ADS-B
Mon 09:10:41 PM 49.3410 -112.8590 23° Northeast 486 559 37,000  Level FlightAware ADS-B
Mon 09:11:21 PM 49.4250 -112.8040 23° Northeast 486 559 37,000  Level FlightAware ADS-B
Mon 09:12:04 PM 49.5070 -112.7510 23° Northeast 486 559 37,000  Level FlightAware ADS-B
Mon 09:12:47 PM 49.6020 -112.6830 25° Northeast 482 555 37,000  Level FlightAware ADS-B
Mon 09:13:27 PM 49.6770 -112.6080 33° Northeast 492 566 37,000  Level FlightAware ADS-B
Mon 09:14:07 PM 49.7480 -112.5220 38° Northeast 493 567 37,000  Level FlightAware ADS-B
Mon 09:14:52 PM 49.8280 -112.4240 38° Northeast 492 566 37,000  Level FlightAware ADS-B
Mon 09:15:27 PM 49.8910 -112.3460 39° Northeast 493 567 37,000  Level FlightAware ADS-B
Mon 09:16:12 PM 49.9710 -112.2440 39° Northeast 483 556 37,000  Level FlightAware ADS-B
Mon 09:16:48 PM 50.0320 -112.1660 39° Northeast 479 551 37,000  Level FlightAware ADS-B
Mon 09:17:33 PM 50.1120 -112.0650 39° Northeast 483 556 37,000  Level FlightAware ADS-B
Mon 09:18:13 PM 50.1790 -111.9790 39° Northeast 482 555 37,000  Level FlightAware ADS-B
Mon 09:18:58 PM 50.2550 -111.8810 39° Northeast 481 554 37,000  Level FlightAware ADS-B
Mon 09:19:38 PM 50.3260 -111.7900 39° Northeast 480 552 37,000  Level FlightAware ADS-B
Mon 09:20:23 PM 50.4010 -111.6920 40° Northeast 477 549 37,000  Level FlightAware ADS-B
Mon 09:21:08 PM 50.4790 -111.5910 39° Northeast 477 549 37,000  Level FlightAware ADS-B
Mon 09:21:44 PM 50.5390 -111.5120 40° Northeast 477 549 37,000  Level FlightAware ADS-B
Mon 09:22:24 PM 50.6060 -111.4240 40° Northeast 471 542 37,000  Level FlightAware ADS-B
Mon 09:23:09 PM 50.6820 -111.3240 40° Northeast 471 542 37,000  Level FlightAware ADS-B
Mon 09:23:54 PM 50.7560 -111.2260 40° Northeast 479 551 37,000  Level FlightAware ADS-B
Mon 09:24:58 PM 50.8640 -111.0820 40° Northeast 481 554 37,000  Level FlightAware ADS-B
Mon 09:25:37 PM 50.9310 -110.9930 40° Northeast 482 555 37,000  Level FlightAware ADS-B
Mon 09:26:18 PM 51.0030 -110.8960 40° Northeast 484 557 37,000  Level FlightAware ADS-B
Mon 09:26:57 PM 51.0700 -110.8050 40° Northeast 485 558 37,000  Level FlightAware ADS-B
Mon 09:27:32 PM 51.1320 -110.7220 40° Northeast 487 560 37,000  Level FlightAware ADS-B
Mon 09:28:17 PM 51.2070 -110.6200 40° Northeast 487 560 37,000  Level FlightAware ADS-B
Mon 09:29:02 PM 51.2830 -110.5160 41° Northeast 485 558 37,000  Level FlightAware ADS-B
Mon 09:29:43 PM 51.3460 -110.4300 40° Northeast 485 558 37,000  Level FlightAware ADS-B
Mon 09:30:28 PM 51.4280 -110.3170 41° Northeast 485 558 37,000  Level FlightAware ADS-B
Mon 09:31:08 PM 51.4940 -110.2260 41° Northeast 485 558 37,000  Level FlightAware ADS-B
Mon 09:31:43 PM 51.5530 -110.1440 41° Northeast 485 558 37,000  Level FlightAware ADS-B
Mon 09:32:24 PM 51.6260 -110.0420 41° Northeast 490 564 37,000  Level FlightAware ADS-B
Mon 09:33:03 PM 51.6880 -109.9540 41° Northeast 491 565 37,000  Level FlightAware ADS-B
Mon 09:33:40 PM 51.7440 -109.8760 41° Northeast 491 565 37,000  Level FlightAware ADS-B
Mon 09:34:24 PM 51.8300 -109.7540 41° Northeast 491 565 37,000  Level FlightAware ADS-B
Mon 09:35:03 PM 51.8970 -109.6600 41° Northeast 490 564 37,000  Level FlightAware ADS-B
Mon 09:35:49 PM 51.9750 -109.5490 41° Northeast 490 564 37,000  Level FlightAware ADS-B
Mon 09:36:32 PM 52.0390 -109.4570 41° Northeast 489 563 37,000  Level FlightAware ADS-B
Mon 09:37:08 PM 52.0920 -109.3830 41° Northeast 489 563 37,000  Level FlightAware ADS-B
Mon 09:37:56 PM 52.1610 -109.2850 41° Northeast 489 563 37,000  Level FlightAware ADS-B
Mon 09:38:32 PM 52.2140 -109.2110 41° Northeast 489 563 37,000  Level FlightAware ADS-B
Mon 09:39:08 PM 52.2660 -109.1360 41° Northeast 489 563 37,000  Level FlightAware ADS-B
Mon 09:39:56 PM 52.3360 -109.0370 41° Northeast 489 563 37,000  Level FlightAware ADS-B
Mon 09:40:45 PM 52.4070 -108.9360 41° Northeast 489 563 37,000  Level FlightAware ADS-B
Mon 09:41:21 PM 52.4590 -108.8620 41° Northeast 489 563 37,000  Level FlightAware ADS-B
Mon 09:42:09 PM 52.5280 -108.7620 41° Northeast 489 563 37,000  Level FlightAware ADS-B
Mon 09:42:45 PM 52.5810 -108.6870 41° Northeast 489 563 37,000  Level FlightAware ADS-B
Mon 09:43:47 PM 52.6710 -108.5590 41° Northeast 489 563 37,000  Level FlightAware ADS-B
Mon 09:44:23 PM 52.7230 -108.4840 41° Northeast 489 563 37,000  Level FlightAware ADS-B
Mon 09:45:12 PM 52.7940 -108.3810 41° Northeast 489 563 37,000  Level FlightAware ADS-B
Mon 09:46:00 PM 52.8640 -108.2810 41° Northeast 489 563 37,000  Level FlightAware ADS-B
Mon 09:46:35 PM 53.0500 -108.0000 41° Northeast 480 552 37,000  Level Edmonton Center
Mon 09:47:24 PM 53.1667 -107.9167 23° Northeast 480 552 37,000  Level Winnipeg Center
Mon 09:48:24 PM 53.2500 -107.8000 40° Northeast 480 552 37,000  Level Winnipeg Center
Mon 09:49:24 PM 53.3667 -107.6500 37° Northeast 480 552 37,000  Level Winnipeg Center
Mon 09:50:24 PM 53.4667 -107.5167 38° Northeast 480 552 37,000  Level Winnipeg Center
Mon 09:51:24 PM 53.5833 -107.4000 31° Northeast 490 564 37,000  Level Winnipeg Center
Mon 09:52:24 PM 53.7000 -107.2500 37° Northeast 490 564 37,000  Level Winnipeg Center
Mon 09:53:24 PM 53.7833 -107.1000 47° Northeast 480 552 37,000  Level Winnipeg Center
Mon 09:54:24 PM 53.9000 -106.9667 34° Northeast 480 552 37,000  Level Winnipeg Center
Mon 09:55:24 PM 54.0000 -106.8333 38° Northeast 490 564 37,000  Level Winnipeg Center
Mon 09:56:24 PM 54.1167 -106.7000 34° Northeast 480 552 37,000  Level Winnipeg Center
Mon 09:57:24 PM 54.2167 -106.5500 41° Northeast 490 564 37,000  Level Winnipeg Center
Mon 09:58:24 PM 54.3333 -106.4000 37° Northeast 490 564 37,000  Level Winnipeg Center
Mon 09:59:24 PM 54.4333 -106.2833 34° Northeast 490 564 37,000  Level Winnipeg Center
Mon 10:00:24 PM 54.5500 -106.1333 37° Northeast 490 564 37,000  Level Winnipeg Center
Mon 10:01:24 PM 54.6500 -105.9833 41° Northeast 490 564 37,000  Level Winnipeg Center
Mon 10:02:24 PM 54.7667 -105.8333 37° Northeast 490 564 37,000  Level Winnipeg Center
Mon 10:03:24 PM 54.8667 -105.6667 44° Northeast 490 564 37,000  Level Winnipeg Center
Mon 10:04:24 PM 54.9667 -105.5500 34° Northeast 490 564 37,000  Level Winnipeg Center
Mon 10:05:24 PM 55.0667 -105.4000 41° Northeast 490 564 37,000  Level Winnipeg Center
Mon 10:06:24 PM 55.2000 -105.2500 33° Northeast 490 564 37,000  Level Winnipeg Center
Mon 10:07:24 PM 55.3000 -105.1167 37° Northeast 480 552 37,000  Level Winnipeg Center
Mon 10:08:24 PM 55.4000 -104.9833 37° Northeast 470 541 37,000  Level Winnipeg Center
Mon 10:09:24 PM 55.5167 -104.8333 36° Northeast 470 541 37,000  Level Winnipeg Center
Mon 10:10:24 PM 55.6333 -104.7167 29° Northeast 470 541 37,000  Level Winnipeg Center
Mon 10:11:24 PM 55.7167 -104.5833 42° Northeast 480 552 37,000  Level Winnipeg Center
Mon 10:12:24 PM 55.8333 -104.4500 33° Northeast 480 552 37,000  Level Winnipeg Center
Mon 10:13:24 PM 55.9333 -104.3167 37° Northeast 480 552 37,000  Level Winnipeg Center
Mon 10:14:24 PM 56.0667 -104.1667 32° Northeast 480 552 37,000  Level Winnipeg Center
Mon 10:15:24 PM 56.1667 -104.0333 37° Northeast 480 552 37,000  Level Winnipeg Center
Mon 10:16:24 PM 56.2667 -103.9000 36° Northeast 480 552 37,000  Level Winnipeg Center
Mon 10:17:24 PM 56.3833 -103.7333 38° Northeast 470 541 37,000  Level Winnipeg Center
Mon 10:18:24 PM 56.4833 -103.6000 36° Northeast 480 552 37,000  Level Winnipeg Center
Mon 10:19:24 PM 56.6000 -103.4667 32° Northeast 480 552 37,000  Level Winnipeg Center
Mon 10:20:24 PM 56.7000 -103.3000 42° Northeast 480 552 37,000  Level Winnipeg Center
Mon 10:21:24 PM 56.8000 -103.1667 36° Northeast 480 552 37,000  Level Winnipeg Center
Mon 10:22:24 PM 56.9167 -103.0333 32° Northeast 480 552 37,000  Level Winnipeg Center
Mon 10:23:24 PM 57.0167 -102.9000 36° Northeast 480 552 37,000  Level Winnipeg Center
Mon 10:24:24 PM 57.1333 -102.7333 38° Northeast 470 541 37,000  Level Winnipeg Center
Mon 10:25:24 PM 57.2333 -102.5833 39° Northeast 470 541 37,000  Level Winnipeg Center
Mon 10:26:24 PM 57.3500 -102.4500 32° Northeast 470 541 37,000  Level Winnipeg Center
Mon 10:27:24 PM 57.4500 -102.2833 42° Northeast 480 552 37,000  Level Winnipeg Center
Mon 10:28:24 PM 57.5333 -102.1333 44° Northeast 480 552 37,000  Level Winnipeg Center
Mon 10:29:24 PM 57.6500 -102.0000 31° Northeast 480 552 37,000  Level Winnipeg Center
Mon 10:30:24 PM 57.7500 -101.8167 44° Northeast 480 552 37,000  Level Winnipeg Center
Mon 10:31:24 PM 57.8667 -101.6833 31° Northeast 490 564 37,000  Level Winnipeg Center
Mon 10:32:24 PM 57.9667 -101.5333 38° Northeast 480 552 37,000  Level Winnipeg Center
Mon 10:33:24 PM 58.0667 -101.3500 44° Northeast 480 552 37,000  Level Winnipeg Center
Mon 10:34:24 PM 58.1833 -101.2000 34° Northeast 480 552 37,000  Level Winnipeg Center
Mon 10:35:24 PM 58.2833 -101.0667 35° Northeast 480 552 37,000  Level Winnipeg Center
Mon 10:36:24 PM 58.3833 -100.8833 44° Northeast 480 552 37,000  Level Winnipeg Center
Mon 10:37:24 PM 58.5000 -100.7333 34° Northeast 470 541 37,000  Level Winnipeg Center
Mon 10:38:24 PM 58.6000 -100.5833 38° Northeast 470 541 37,000  Level Winnipeg Center
Mon 10:39:24 PM 58.7000 -100.4000 44° Northeast 480 552 37,000  Level Winnipeg Center
Mon 10:40:24 PM 58.7833 -100.2500 43° Northeast 470 541 37,000  Level Winnipeg Center
Mon 10:41:24 PM 58.9000 -100.1000 34° Northeast 490 564 37,000  Level Winnipeg Center
Mon 10:42:24 PM 59.0000 -99.9167 43° Northeast 480 552 37,000  Level Winnipeg Center
Mon 10:43:24 PM 59.1000 -99.7500 41° Northeast 480 552 37,000  Level Winnipeg Center
Mon 10:44:24 PM 59.2000 -99.6000 38° Northeast 480 552 37,000  Level Winnipeg Center
Mon 10:45:24 PM 59.3000 -99.4167 43° Northeast 480 552 37,000  Level Winnipeg Center
Mon 10:46:24 PM 59.4167 -99.2500 36° Northeast 480 552 37,000  Level Winnipeg Center
Mon 10:47:24 PM 59.5167 -99.1000 37° Northeast 490 564 37,000  Level Winnipeg Center
Mon 10:48:24 PM 59.6167 -98.9000 45° Northeast 480 552 37,000  Level Winnipeg Center
Mon 10:49:24 PM 59.7167 -98.7500 37° Northeast 480 552 37,000  Level Winnipeg Center
Mon 10:50:24 PM 59.8167 -98.5500 45° Northeast 480 552 37,000  Level Winnipeg Center
Mon 10:51:35 PM 59.9167 -98.3167 49° Northeast 470 541 37,000  Level Edmonton Center
Mon 10:52:35 PM 60.0167 -98.1167 45° Northeast 480 552 37,000  Level Edmonton Center
Mon 10:53:35 PM 60.1333 -97.9667 33° Northeast 480 552 37,000  Level Edmonton Center
Mon 10:54:35 PM 60.2167 -97.7667 50° Northeast 470 541 37,000  Level Edmonton Center
Mon 10:55:35 PM 60.3333 -97.6000 35° Northeast 470 541 37,000  Level Edmonton Center
Mon 10:56:35 PM 60.4167 -97.4167 47° Northeast 480 552 37,000  Level Edmonton Center
Mon 10:57:35 PM 60.5333 -97.2500 35° Northeast 470 541 37,000  Level Edmonton Center
Mon 10:58:35 PM 60.6167 -97.0500 50° Northeast 470 541 37,000  Level Edmonton Center
Mon 10:59:35 PM 60.7333 -96.8500 40° Northeast 480 552 37,000  Level Edmonton Center
Mon 11:00:35 PM 60.8167 -96.6833 44° Northeast 480 552 37,000  Level Edmonton Center
Mon 11:01:35 PM 60.9333 -96.4833 40° Northeast 480 552 37,000  Level Edmonton Center
Mon 11:02:35 PM 61.0167 -96.3167 44° Northeast 480 552 37,000  Level Edmonton Center
Mon 11:03:35 PM 61.1333 -96.1167 40° Northeast 480 552 37,000  Level Edmonton Center
Mon 11:04:35 PM 61.2167 -95.9167 49° Northeast 480 552 37,000  Level Edmonton Center
Mon 11:05:35 PM 61.3167 -95.7333 41° Northeast 470 541 37,000  Level Edmonton Center
Mon 11:06:35 PM 61.4167 -95.5333 44° Northeast 470 541 37,000  Level Edmonton Center
Mon 11:07:35 PM 61.5000 -95.3667 44° Northeast 470 541 37,000  Level Edmonton Center
Mon 11:08:35 PM 61.6167 -95.1500 41° Northeast 470 541 37,000  Level Edmonton Center
Mon 11:09:35 PM 61.7000 -94.9667 46° Northeast 470 541 37,000  Level Edmonton Center
Mon 11:10:35 PM 61.8000 -94.7667 43° Northeast 470 541 37,000  Level Edmonton Center
Mon 11:11:35 PM 61.9000 -94.5833 41° Northeast 470 541 37,000  Level Edmonton Center
Mon 11:12:35 PM 62.0000 -94.3667 45° Northeast 470 541 37,000  Level Edmonton Center
Mon 11:13:35 PM 62.0833 -94.1833 46° Northeast 470 541 37,000  Level Edmonton Center
Mon 11:14:35 PM 62.1833 -93.9667 45° Northeast 480 552 37,000  Level Edmonton Center
Mon 11:15:35 PM 62.2833 -93.7833 40° Northeast 480 552 37,000  Level Edmonton Center
Mon 11:16:35 PM 62.3833 -93.5667 45° Northeast 480 552 37,000  Level Edmonton Center
Mon 11:17:35 PM 62.4667 -93.3500 50° Northeast 480 552 37,000  Level Edmonton Center
Mon 11:18:35 PM 62.5667 -93.1500 43° Northeast 480 552 37,000  Level Edmonton Center
Mon 11:19:35 PM 62.6500 -92.9333 50° Northeast 480 552 37,000  Level Edmonton Center
Mon 11:20:35 PM 62.7500 -92.7000 47° Northeast 480 552 37,000  Level Edmonton Center
Mon 11:21:35 PM 62.8333 -92.5167 45° Northeast 480 552 37,000  Level Edmonton Center
Mon 11:22:35 PM 62.9333 -92.2833 47° Northeast 480 552 37,000  Level Edmonton Center
Mon 11:23:35 PM 63.0333 -92.0500 47° Northeast 480 552 37,000  Level Edmonton Center
Mon 11:24:35 PM 63.1333 -91.8667 40° Northeast 480 552 37,000  Level Edmonton Center
Mon 11:25:35 PM 63.2167 -91.6167 53° Northeast 480 552 37,000  Level Edmonton Center
Mon 11:26:35 PM 63.3167 -91.4333 39° Northeast 480 552 37,000  Level Edmonton Center
Mon 11:27:35 PM 63.4000 -91.1833 53° Northeast 480 552 37,000  Level Edmonton Center
Mon 11:28:35 PM 63.4833 -90.9500 51° Northeast 480 552 37,000  Level Edmonton Center
Mon 11:29:35 PM 63.5833 -90.7500 42° Northeast 480 552 37,000  Level Edmonton Center
Mon 11:30:35 PM 63.6667 -90.5167 51° Northeast 470 541 37,000  Level Edmonton Center
Mon 11:31:35 PM 63.7667 -90.3000 44° Northeast 470 541 37,000  Level Edmonton Center
Mon 11:32:35 PM 63.8500 -90.0667 51° Northeast 470 541 37,000  Level Edmonton Center
Mon 11:33:35 PM 63.9500 -89.8667 41° Northeast 480 552 37,000  Level Edmonton Center
Mon 11:34:35 PM 64.0333 -89.6167 53° Northeast 480 552 37,000  Level Edmonton Center
Mon 11:35:35 PM 64.1333 -89.4000 43° Northeast 480 552 37,000  Level Edmonton Center
Mon 11:36:35 PM 64.2000 -89.1667 57° Northeast 480 552 37,000  Level Edmonton Center
Mon 11:37:35 PM 64.3000 -88.9000 49° Northeast 480 552 37,000  Level Edmonton Center
Mon 11:38:35 PM 64.3833 -88.7000 46° Northeast 480 552 37,000  Level Edmonton Center
Mon 11:39:35 PM 64.4667 -88.4333 54° Northeast 480 552 37,000  Level Edmonton Center
Mon 11:40:35 PM 64.5500 -88.2333 46° Northeast 480 552 37,000  Level Edmonton Center
Mon 11:41:35 PM 64.6500 -87.9667 49° Northeast 480 552 37,000  Level Edmonton Center
Mon 11:42:35 PM 64.7333 -87.7500 48° Northeast 480 552 37,000  Level Edmonton Center
Mon 11:43:35 PM 64.8167 -87.4833 54° Northeast 480 552 37,000  Level Edmonton Center
Mon 11:44:35 PM 64.9000 -87.2333 52° Northeast 480 552 37,000  Level Edmonton Center
Mon 11:45:35 PM 64.9833 -87.0000 50° Northeast 480 552 37,000  Level Edmonton Center
Mon 11:46:35 PM 65.0667 -86.7500 52° Northeast 480 552 37,000  Level Edmonton Center
Mon 11:47:35 PM 65.1500 -86.5167 50° Northeast 480 552 37,000  Level Edmonton Center
Mon 11:48:35 PM 65.2333 -86.2500 53° Northeast 470 541 37,000  Level Edmonton Center
Mon 11:49:35 PM 65.3167 -86.0167 49° Northeast 480 552 37,000  Level Edmonton Center
Mon 11:50:35 PM 65.4000 -85.7500 53° Northeast 480 552 37,000  Level Edmonton Center
Mon 11:51:35 PM 65.4833 -85.4667 55° Northeast 480 552 37,000  Level Edmonton Center
Mon 11:52:35 PM 65.5500 -85.2500 53° Northeast 480 552 37,000  Level Edmonton Center
Mon 11:53:35 PM 65.6500 -84.9667 49° Northeast 470 541 37,000  Level Edmonton Center
Mon 11:54:35 PM 65.7167 -84.7333 55° Northeast 470 541 37,000  Level Edmonton Center
Mon 11:55:35 PM 65.8000 -84.4500 54° Northeast 470 541 37,000  Level Edmonton Center
Mon 11:56:35 PM 65.8833 -84.2167 49° Northeast 470 541 37,000  Level Edmonton Center
Mon 11:57:35 PM 65.9500 -83.9333 60° Northeast 470 541 37,000  Level Edmonton Center
Mon 11:58:35 PM 66.0333 -83.6833 51° Northeast 470 541 37,000  Level Edmonton Center
Mon 11:59:35 PM 66.1000 -83.4167 58° Northeast 470 541 37,000  Level Edmonton Center
Tue 12:00:35 AM 66.2000 -83.1667 45° Northeast 470 541 37,000  Level Edmonton Center
Tue 12:01:35 AM 66.2667 -82.8833 60° Northeast 470 541 37,000  Level Edmonton Center
Tue 12:02:35 AM 66.3333 -82.6333 56° Northeast 470 541 37,000  Level Edmonton Center
Tue 12:03:35 AM 66.4167 -82.3333 55° Northeast 470 541 37,000  Level Edmonton Center
Tue 12:04:35 AM 66.4833 -82.1000 54° Northeast 470 541 37,000  Level Edmonton Center
Tue 12:05:35 AM 66.5667 -81.8000 55° Northeast 470 541 37,000  Level Edmonton Center
Tue 12:06:35 AM 66.6500 -81.5333 52° Northeast 470 541 37,000  Level Edmonton Center
Tue 12:07:35 AM 66.7167 -81.2333 61° Northeast 470 541 37,000  Level Edmonton Center
Tue 12:08:35 AM 66.7833 -80.9833 56° Northeast 470 541 37,000  Level Edmonton Center
Tue 12:09:35 AM 66.8667 -80.6833 55° Northeast 470 541 37,000  Level Edmonton Center
Tue 12:10:35 AM 66.9333 -80.4333 56° Northeast 470 541 37,000 300 Level Edmonton Center
Tue 12:11:35 AM 67.0000 -80.1167 62° Northeast 470 541 37,600 600 Climbing Edmonton Center
Tue 12:12:35 AM 67.0667 -79.8500 57° Northeast 470 541 38,200 450 Climbing Edmonton Center
Tue 12:13:35 AM 67.1500 -79.5333 56° Northeast 470 541 38,500 250 Climbing Edmonton Center
Tue 12:14:35 AM 67.2000 -79.2333 67° East 480 552 38,700 250 Climbing Edmonton Center
Tue 12:15:35 AM 67.2833 -78.9667 51° Northeast 480 552 39,000 150 Climbing Edmonton Center
Tue 12:16:35 AM 67.3500 -78.6667 60° Northeast 480 552 39,000  Level Edmonton Center
Tue 12:17:35 AM 67.4333 -78.3833 52° Northeast 480 552 39,000  Level Edmonton Center
Tue 12:18:35 AM 67.4833 -78.0667 67° East 480 552 39,000  Level Edmonton Center
Tue 12:19:35 AM 67.5667 -77.7833 52° Northeast 480 552 39,000  Level Edmonton Center
Tue 12:20:35 AM 67.6167 -77.4833 66° East 480 552 39,000  Level Edmonton Center
Tue 12:21:35 AM 67.6833 -77.1500 62° Northeast 480 552 39,000  Level Edmonton Center
Tue 12:22:35 AM 67.7500 -76.8667 58° Northeast 480 552 39,000  Level Edmonton Center
Tue 12:23:35 AM 67.8167 -76.5333 62° Northeast 480 552 39,000  Level Edmonton Center
Tue 12:24:35 AM 67.8833 -76.2667 56° Northeast 480 552 39,000  Level Edmonton Center
Tue 12:25:35 AM 67.9500 -75.9333 62° Northeast 480 552 39,000  Level Edmonton Center
Tue 12:26:35 AM 68.0167 -75.6500 58° Northeast 480 552 39,000  Level Edmonton Center
Tue 12:27:35 AM 68.0833 -75.3167 62° Northeast 480 552 39,000  Level Edmonton Center
Tue 12:28:35 AM 68.1333 -74.9833 68° East 480 552 39,000  Level Edmonton Center
Tue 12:29:35 AM 68.2000 -74.6833 59° Northeast 480 552 39,000  Level Edmonton Center
Tue 12:30:35 AM 68.2667 -74.3500 62° Northeast 480 552 39,000  Level Edmonton Center
Tue 12:31:35 AM 68.3167 -74.0500 66° East 480 552 39,000  Level Edmonton Center
Tue 12:32:35 AM 68.3833 -73.7167 61° Northeast 480 552 39,000  Level Edmonton Center
Tue 12:33:35 AM 68.4500 -73.4167 59° Northeast 480 552 39,000  Level Edmonton Center
Tue 12:34:35 AM 68.5000 -73.0667 69° East 480 552 39,000  Level Edmonton Center
Tue 12:35:35 AM 68.5500 -72.7333 68° East 480 552 39,000  Level Edmonton Center
Tue 12:36:35 AM 68.6167 -72.4167 60° Northeast 480 552 39,000  Level Edmonton Center
Tue 12:37:35 AM 68.6833 -72.0667 62° Northeast 480 552 39,000  Level Edmonton Center
Tue 12:38:35 AM 68.7333 -71.7667 65° Northeast 480 552 39,000  Level Edmonton Center
Tue 12:39:35 AM 68.7833 -71.4000 69° East 480 552 39,000  Level Edmonton Center
Tue 12:40:35 AM 68.8333 -71.0667 67° East 480 552 39,000  Level Edmonton Center
Tue 12:41:35 AM 68.9000 -70.7500 60° Northeast 480 552 39,000  Level Edmonton Center
Tue 12:42:35 AM 68.9500 -70.3833 69° East 480 552 39,000  Level Edmonton Center
Tue 12:43:35 AM 69.0000 -70.0833 65° Northeast 480 552 39,000  Level Edmonton Center
Tue 12:44:35 AM 69.0667 -69.7000 64° Northeast 490 564 39,000  Level Edmonton Center
Tue 12:45:35 AM 69.1000 -69.3667 74° East 490 564 39,000  Level Edmonton Center
Tue 12:46:35 AM 69.1667 -69.0333 61° Northeast 490 564 39,000  Level Edmonton Center
Tue 12:47:35 AM 69.2167 -68.6500 70° East 490 564 39,000  Level Edmonton Center
Tue 12:48:35 AM 69.2500 -68.3000 75° East 490 564 39,000  Level Edmonton Center
Tue 12:49:35 AM 69.3167 -67.9667 60° Northeast 490 564 39,000  Level Edmonton Center
Tue 12:50:35 AM 69.3667 -67.6000 69° East 490 564 39,000  Level Edmonton Center
Tue 12:51:35 AM 69.4167 -67.2167 69° East 490 564 39,000  Level Edmonton Center
Tue 12:52:35 AM 69.4500 -66.8667 75° East 490 564 39,000  Level Edmonton Center
Tue 12:53:35 AM 69.5000 -66.5167 68° East 490 564 39,000  Level Edmonton Center
Tue 12:54:35 AM 69.5500 -66.1333 69° East 490 564 39,000  Level Edmonton Center
Tue 12:55:35 AM 69.6000 -65.7500 69° East 490 564 39,000  Level Edmonton Center
Tue 12:56:35 AM 69.6333 -65.4167 74° East 500 575 39,000  Level Edmonton Center
Tue 12:57:35 AM 69.6833 -65.0333 69° East 490 564 39,000  Level Edmonton Center
Tue 12:58:35 AM 69.7167 -64.6500 76° East 500 575 39,000  Level Edmonton Center
Tue 12:59:35 AM 69.7667 -64.2500 70° East 500 575 39,000  Level Edmonton Center
Tue 01:01:00 AM 69.8405 -63.7561 66° East  Level FlightAware Approximate
Tue 01:02:35 AM 69.8833 -63.1333 73° East 500 575 39,000  Level Edmonton Center
Tue 01:03:35 AM 69.9333 -62.7833 67° East 500 575 39,000  Level Edmonton Center
Tue 01:04:35 AM 69.9667 -62.3833 76° East 500 575 39,000  Level Edmonton Center
Tue 01:05:35 AM 70.0167 -62.0167 68° East 490 564 39,000  Level Edmonton Center
Tue 01:06:35 AM 70.0500 -61.6167 76° East 490 564 39,000  Level Edmonton Center
Tue 01:07:35 AM 70.1000 -61.2500 68° East 490 564 39,000  Level Edmonton Center
Tue 01:08:00 AM 70.1505 -61.2257 70° East  Level FlightAware Approximate
Tue 01:08:35 AM 70.1500 -60.8833 68° East 490 564 39,000  Level Edmonton Center
Tue 01:09:00 AM 70.1907 -60.8577 72° East  Level FlightAware Approximate
Tue 01:09:35 AM 70.1833 -60.4833 76° East 490 564 39,000  Level Edmonton Center
Tue 01:10:00 AM 70.2302 -60.4882 72° East  Level FlightAware Approximate
Tue 01:10:35 AM 70.2167 -60.1167 75° East 490 564 39,000  Level Edmonton Center
Tue 01:11:00 AM 70.2689 -60.1173 73° East  Level FlightAware Approximate
Tue 01:11:35 AM 70.2667 -59.7500 68° East 490 564 39,000  Level Edmonton Center
Tue 01:12:00 AM 70.3069 -59.7450 73° East  Level FlightAware Approximate
Tue 01:12:35 AM 70.3000 -59.4000 74° East 490 564 39,000  Level Edmonton Center
Tue 01:13:35 AM 70.3333 -58.9667 77° East 500 575 39,000  Level Edmonton Center
Tue 01:14:35 AM 70.3833 -58.5833 69° East 500 575 39,000  Level Edmonton Center
Tue 01:15:35 AM 70.4167 -58.2167 75° East 500 575 39,000  Level Edmonton Center
Tue 01:16:35 AM 70.4500 -57.8000 76° East 500 575 39,000  Level Edmonton Center
Tue 01:17:35 AM 70.4833 -57.4167 75° East 490 564 39,000  Level Edmonton Center
Tue 01:18:35 AM 70.5167 -57.0833 73° East 490 564 39,000  Level Edmonton Center
Tue 01:19:35 AM 70.5333 -56.6667 83° East 490 564 39,000  Level Edmonton Center
Tue 01:21:00 AM 70.5810 -56.1271 75° East  Level FlightAware Approximate
Tue 01:28:00 AM 70.7931 -53.4253 75° East  Level FlightAware Approximate
Tue 01:29:00 AM 70.8201 -53.0348 78° East  Level FlightAware Approximate
Tue 01:30:00 AM 70.8463 -52.6433 78° East  Level FlightAware Approximate
Tue 01:31:00 AM 70.8717 -52.2508 79° East  Level FlightAware Approximate
Tue 01:32:00 AM 70.8962 -51.8573 79° East  Level FlightAware Approximate
Tue 01:33:00 AM 70.9199 -51.4628 79° East  Level FlightAware Approximate
Tue 01:34:00 AM 70.9427 -51.0674 80° East  Level FlightAware Approximate
Tue 01:35:00 AM 70.9648 -50.6711 80° East  Level FlightAware Approximate
Tue 01:36:00 AM 70.9859 -50.2739 81° East  Level FlightAware Approximate
Tue 01:37:00 AM 71.0033 -49.8734 85° East  Level FlightAware Approximate
Tue 01:38:00 AM 71.0134 -49.4715 85° East  Level FlightAware Approximate
Tue 01:39:00 AM 71.0226 -49.0692 86° East  Level FlightAware Approximate
Tue 01:40:00 AM 71.0309 -48.6665 86° East  Level FlightAware Approximate
Tue 01:41:00 AM 71.0383 -48.2635 87° East  Level FlightAware Approximate
Tue 01:42:00 AM 71.0449 -47.8602 87° East  Level FlightAware Approximate
Tue 01:43:00 AM 71.0506 -47.4567 88° East  Level FlightAware Approximate
Tue 01:44:00 AM 71.0555 -47.0530 88° East  Level FlightAware Approximate
Tue 01:45:00 AM 71.0595 -46.6491 88° East  Level FlightAware Approximate
Tue 01:46:00 AM 71.0627 -46.2450 88° East  Level FlightAware Approximate
Tue 01:47:00 AM 71.0649 -45.8408 89° East  Level FlightAware Approximate
Tue 01:48:00 AM 71.0663 -45.4366 89° East  Level FlightAware Approximate
Tue 01:49:00 AM 71.0669 -45.0322 90° East  Level FlightAware Approximate
Tue 01:50:00 AM 71.0665 -44.6279 90° East  Level FlightAware Approximate
Tue 01:51:00 AM 71.0653 -44.2237 90° East  Level FlightAware Approximate
Tue 01:52:00 AM 71.0632 -43.8195 91° East  Level FlightAware Approximate
Tue 01:53:00 AM 71.0602 -43.4154 91° East  Level FlightAware Approximate
Tue 01:54:00 AM 71.0564 -43.0114 91° East  Level FlightAware Approximate
Tue 01:55:00 AM 71.0517 -42.6076 92° East  Level FlightAware Approximate
Tue 01:56:00 AM 71.0461 -42.2041 92° East  Level FlightAware Approximate
Tue 01:57:00 AM 71.0396 -41.8008 93° East  Level FlightAware Approximate
Tue 01:58:00 AM 71.0323 -41.3977 93° East  Level FlightAware Approximate
Tue 01:59:00 AM 71.0240 -40.9950 93° East  Level FlightAware Approximate
Tue 02:00:00 AM 71.0150 -40.5926 94° East  Level FlightAware Approximate
Tue 02:01:00 AM 71.0050 -40.1906 94° East  Level FlightAware Approximate
Tue 02:02:00 AM 70.9856 -39.7930 102° East  Level FlightAware Approximate
Tue 02:03:00 AM 70.9576 -39.3999 102° East  Level FlightAware Approximate
Tue 02:04:00 AM 70.9287 -39.0080 103° East  Level FlightAware Approximate
Tue 02:05:00 AM 70.8991 -38.6172 103° East  Level FlightAware Approximate
Tue 02:06:00 AM 70.8686 -38.2276 103° East  Level FlightAware Approximate
Tue 02:07:00 AM 70.8373 -37.8392 104° East  Level FlightAware Approximate
Tue 02:08:00 AM 70.8051 -37.4521 104° East  Level FlightAware Approximate
Tue 02:09:00 AM 70.7722 -37.0662 104° East  Level FlightAware Approximate
Tue 02:10:00 AM 70.7384 -36.6816 105° East  Level FlightAware Approximate
Tue 02:11:00 AM 70.7039 -36.2983 105° East  Level FlightAware Approximate
Tue 02:12:00 AM 70.6686 -35.9163 105° East  Level FlightAware Approximate
Tue 02:13:00 AM 70.6324 -35.5357 106° East  Level FlightAware Approximate
Tue 02:14:00 AM 70.5955 -35.1564 106° East  Level FlightAware Approximate
Tue 02:15:00 AM 70.5578 -34.7786 107° East  Level FlightAware Approximate
Tue 02:16:00 AM 70.5195 -34.4020 107° East  Level FlightAware Approximate
Tue 02:17:00 AM 70.4803 -34.0269 107° East  Level FlightAware Approximate
Tue 02:18:00 AM 70.4404 -33.6533 108° East  Level FlightAware Approximate
Tue 02:19:00 AM 70.3998 -33.2811 108° East  Level FlightAware Approximate
Tue 02:20:00 AM 70.3583 -32.9104 108° East  Level FlightAware Approximate
Tue 02:21:00 AM 70.3161 -32.5413 109° East  Level FlightAware Approximate
Tue 02:22:00 AM 70.2732 -32.1736 109° East  Level FlightAware Approximate
Tue 02:23:00 AM 70.2295 -31.8076 109° East  Level FlightAware Approximate
Tue 02:24:00 AM 70.1851 -31.4431 110° East  Level FlightAware Approximate
Tue 02:25:00 AM 70.1400 -31.0801 110° East  Level FlightAware Approximate
Tue 02:26:00 AM 70.0941 -30.7188 110° East  Level FlightAware Approximate
Tue 02:27:00 AM 70.0475 -30.3590 111° Southeast  Level FlightAware Approximate
Tue 02:28:00 AM 70.0001 -30.0009 111° Southeast  Level FlightAware Approximate
Tue 02:29:00 AM 69.9445 -29.6539 115° Southeast  Level FlightAware Approximate
Tue 02:30:00 AM 69.8883 -29.3088 115° Southeast  Level FlightAware Approximate
Tue 02:31:00 AM 69.8313 -28.9656 116° Southeast  Level FlightAware Approximate
Tue 02:32:00 AM 69.7737 -28.6242 116° Southeast  Level FlightAware Approximate
Tue 02:33:00 AM 69.7154 -28.2847 116° Southeast  Level FlightAware Approximate
Tue 02:34:00 AM 69.6565 -27.9471 117° Southeast  Level FlightAware Approximate
Tue 02:35:00 AM 69.5970 -27.6113 117° Southeast  Level FlightAware Approximate
Tue 02:36:00 AM 69.5368 -27.2775 117° Southeast  Level FlightAware Approximate
Tue 02:37:00 AM 69.4760 -26.9455 117° Southeast  Level FlightAware Approximate
Tue 02:38:00 AM 69.4145 -26.6154 118° Southeast  Level FlightAware Approximate
Tue 02:39:00 AM 69.3530 -26.2863 118° Southeast  Level FlightAware Approximate
Tue 02:40:00 AM 69.2915 -25.9582 118° Southeast  Level FlightAware Approximate
Tue 02:41:00 AM 69.2294 -25.6319 118° Southeast  Level FlightAware Approximate
Tue 02:42:00 AM 69.1666 -25.3076 118° Southeast  Level FlightAware Approximate
Tue 02:43:00 AM 69.1033 -24.9850 119° Southeast  Level FlightAware Approximate
Tue 02:44:00 AM 69.0393 -24.6644 119° Southeast  Level FlightAware Approximate
Tue 02:45:00 AM 68.9748 -24.3456 119° Southeast  Level FlightAware Approximate
Tue 02:46:00 AM 68.9096 -24.0287 120° Southeast  Level FlightAware Approximate
Tue 02:47:00 AM 68.8439 -23.7137 120° Southeast  Level FlightAware Approximate
Tue 02:48:00 AM 68.7776 -23.4005 120° Southeast  Level FlightAware Approximate
Tue 02:49:00 AM 68.7108 -23.0891 120° Southeast  Level FlightAware Approximate
Tue 02:50:00 AM 68.6439 -22.7787 121° Southeast  Level FlightAware Approximate
Tue 02:51:00 AM 68.5764 -22.4703 121° Southeast  Level FlightAware Approximate
Tue 02:52:00 AM 68.5084 -22.1636 121° Southeast  Level FlightAware Approximate
Tue 02:53:00 AM 68.4398 -21.8589 121° Southeast  Level FlightAware Approximate
Tue 02:54:00 AM 68.3707 -21.5559 122° Southeast  Level FlightAware Approximate
Tue 02:55:00 AM 68.3010 -21.2548 122° Southeast  Level FlightAware Approximate
Tue 02:56:00 AM 68.2308 -20.9556 122° Southeast  Level FlightAware Approximate
Tue 02:57:00 AM 68.1601 -20.6582 122° Southeast  Level FlightAware Approximate
Tue 02:58:00 AM 68.0888 -20.3626 123° Southeast  Level FlightAware Approximate
Tue 02:59:00 AM 68.0170 -20.0689 123° Southeast  Level FlightAware Approximate
Tue 03:00:00 AM 67.9463 -19.7742 122° Southeast  Level FlightAware Approximate
Tue 03:01:00 AM 67.8755 -19.4804 123° Southeast  Level FlightAware Approximate
Tue 03:02:00 AM 67.8042 -19.1884 123° Southeast  Level FlightAware Approximate
Tue 03:03:00 AM 67.7324 -18.8982 123° Southeast  Level FlightAware Approximate
Tue 03:04:00 AM 67.6601 -18.6098 123° Southeast  Level FlightAware Approximate
Tue 03:05:00 AM 67.5873 -18.3232 124° Southeast  Level FlightAware Approximate
Tue 03:06:00 AM 67.5140 -18.0383 124° Southeast  Level FlightAware Approximate
Tue 03:07:00 AM 67.4402 -17.7552 124° Southeast  Level FlightAware Approximate
Tue 03:08:00 AM 67.3659 -17.4738 124° Southeast  Level FlightAware Approximate
Tue 03:09:00 AM 67.2911 -17.1942 125° Southeast  Level FlightAware Approximate
Tue 03:10:00 AM 67.2158 -16.9164 125° Southeast  Level FlightAware Approximate
Tue 03:11:00 AM 67.1401 -16.6403 125° Southeast  Level FlightAware Approximate
Tue 03:12:00 AM 67.0638 -16.3659 125° Southeast  Level FlightAware Approximate
Tue 03:13:00 AM 66.9871 -16.0932 126° Southeast  Level FlightAware Approximate
Tue 03:14:00 AM 66.9100 -15.8223 126° Southeast  Level FlightAware Approximate
Tue 03:15:00 AM 66.8323 -15.5530 126° Southeast  Level FlightAware Approximate
Tue 03:16:00 AM 66.7543 -15.2855 126° Southeast  Level FlightAware Approximate
Tue 03:17:00 AM 66.6758 -15.0197 127° Southeast  Level FlightAware Approximate
Tue 03:18:00 AM 66.5968 -14.7555 127° Southeast  Level FlightAware Approximate
Tue 03:19:00 AM 66.5174 -14.4931 127° Southeast  Level FlightAware Approximate
Tue 03:20:00 AM 66.4375 -14.2323 127° Southeast  Level FlightAware Approximate
Tue 03:21:00 AM 66.3572 -13.9732 128° Southeast  Level FlightAware Approximate
Tue 03:22:00 AM 66.2765 -13.7157 128° Southeast  Level FlightAware Approximate
Tue 03:23:00 AM 66.1954 -13.4599 128° Southeast  Level FlightAware Approximate
Tue 03:24:00 AM 66.1139 -13.2057 128° Southeast  Level FlightAware Approximate
Tue 03:25:00 AM 66.0319 -12.9531 129° Southeast  Level FlightAware Approximate
Tue 03:26:00 AM 65.9495 -12.7022 129° Southeast  Level FlightAware Approximate
Tue 03:27:00 AM 65.8667 -12.4529 129° Southeast  Level FlightAware Approximate
Tue 03:28:00 AM 65.7835 -12.2052 129° Southeast  Level FlightAware Approximate
Tue 03:29:00 AM 65.7000 -11.9591 129° Southeast  Level FlightAware Approximate
Tue 03:30:00 AM 65.6160 -11.7146 130° Southeast  Level FlightAware Approximate
Tue 03:31:00 AM 65.5316 -11.4717 130° Southeast  Level FlightAware Approximate
Tue 03:32:00 AM 65.4469 -11.2303 130° Southeast  Level FlightAware Approximate
Tue 03:33:00 AM 65.3617 -10.9905 130° Southeast  Level FlightAware Approximate
Tue 03:34:00 AM 65.2762 -10.7523 131° Southeast  Level FlightAware Approximate
Tue 03:35:00 AM 65.1903 -10.5156 131° Southeast  Level FlightAware Approximate
Tue 03:36:00 AM 65.1041 -10.2804 131° Southeast  Level FlightAware Approximate
Tue 03:37:00 AM 65.0174 -10.0468 131° Southeast  Level FlightAware Approximate
Tue 03:38:00 AM 64.9369 -9.8022 127° Southeast  Level FlightAware Approximate
Tue 03:39:00 AM 64.8575 -9.5561 127° Southeast  Level FlightAware Approximate
Tue 03:40:00 AM 64.7777 -9.3114 127° Southeast  Level FlightAware Approximate
Tue 03:41:00 AM 64.6975 -9.0681 128° Southeast  Level FlightAware Approximate
Tue 03:42:00 AM 64.6169 -8.8263 128° Southeast  Level FlightAware Approximate
Tue 03:43:00 AM 64.5359 -8.5859 128° Southeast  Level FlightAware Approximate
Tue 03:44:00 AM 64.4546 -8.3469 128° Southeast  Level FlightAware Approximate
Tue 03:44:35 AM 64.1800 -7.5510 128° Southeast 476 548 39,000  Level FlightAware ADS-B
Tue 03:45:00 AM 64.3728 -8.1094 128° Southeast  Level FlightAware Approximate
Tue 03:45:16 AM 64.1240 -7.3930 129° Southeast 477 549 39,000  Level FlightAware ADS-B
Tue 03:45:52 AM 64.0730 -7.2490 129° Southeast 478 550 39,000  Level FlightAware ADS-B
Tue 03:46:36 AM 64.0110 -7.0770 129° Southeast 478 550 39,000  Level FlightAware ADS-B
Tue 03:47:17 AM 63.9550 -6.9220 129° Southeast 476 548 39,000  Level FlightAware ADS-B
Tue 03:48:01 AM 63.8930 -6.7530 130° Southeast 475 547 39,000  Level FlightAware ADS-B
Tue 03:48:41 AM 63.8370 -6.6000 130° Southeast 475 547 39,000  Level FlightAware ADS-B
Tue 03:49:25 AM 63.7760 -6.4340 130° Southeast 474 545 39,000  Level FlightAware ADS-B
Tue 03:50:05 AM 63.7190 -6.2820 130° Southeast 472 543 39,000  Level FlightAware ADS-B
Tue 03:50:39 AM 63.6710 -6.1540 130° Southeast 471 542 39,000  Level FlightAware ADS-B
Tue 03:51:22 AM 63.6110 -5.9960 130° Southeast 470 541 39,000  Level FlightAware ADS-B
Tue 03:52:02 AM 63.5550 -5.8470 130° Southeast 470 541 39,000  Level FlightAware ADS-B
Tue 03:52:46 AM 63.4920 -5.6840 131° Southeast 470 541 39,000  Level FlightAware ADS-B
Tue 03:53:27 AM 63.4340 -5.5340 131° Southeast 470 541 39,000  Level FlightAware ADS-B
Tue 03:54:10 AM 63.3740 -5.3790 131° Southeast 469 540 39,000  Level FlightAware ADS-B
Tue 03:54:52 AM 63.3140 -5.2240 131° Southeast 469 540 39,000  Level FlightAware ADS-B
Tue 03:55:29 AM 63.2610 -5.0890 131° Southeast 469 540 39,000  Level FlightAware ADS-B
Tue 03:56:19 AM 63.1890 -4.9080 131° Southeast 470 541 39,000  Level FlightAware ADS-B
Tue 03:57:05 AM 63.1230 -4.7430 131° Southeast 471 542 39,000  Level FlightAware ADS-B
Tue 03:57:42 AM 63.0710 -4.6130 131° Southeast 472 543 39,000  Level FlightAware ADS-B
Tue 03:58:22 AM 63.0140 -4.4730 132° Southeast 473 544 39,000  Level FlightAware ADS-B
Tue 03:59:06 AM 62.9480 -4.3110 132° Southeast 473 544 39,000  Level FlightAware ADS-B
Tue 03:59:46 AM 62.8900 -4.1690 132° Southeast 472 543 39,000  Level FlightAware ADS-B
Tue 04:00:30 AM 62.8270 -4.0170 132° Southeast 470 541 39,000  Level FlightAware ADS-B
Tue 04:01:10 AM 62.7670 -3.8730 132° Southeast 471 542 39,000  Level FlightAware ADS-B
Tue 04:01:54 AM 62.7030 -3.7190 132° Southeast 472 543 39,000  Level FlightAware ADS-B
Tue 04:02:26 AM 62.6560 -3.6080 133° Southeast 472 543 39,000  Level FlightAware ADS-B
Tue 04:03:07 AM 62.5940 -3.4630 133° Southeast 474 545 39,000  Level FlightAware ADS-B
Tue 04:03:48 AM 62.5350 -3.3230 132° Southeast 474 545 39,000  Level FlightAware ADS-B
Tue 04:04:25 AM 62.4790 -3.1940 133° Southeast 474 545 39,000  Level FlightAware ADS-B
Tue 04:05:09 AM 62.4140 -3.0420 133° Southeast 474 545 39,000  Level FlightAware ADS-B
Tue 04:05:48 AM 62.3560 -2.9100 133° Southeast 473 544 39,000  Level FlightAware ADS-B
Tue 04:06:32 AM 62.2900 -2.7570 133° Southeast 473 544 39,000  Level FlightAware ADS-B
Tue 04:07:28 AM 62.2120 -2.5790 133° Southeast 473 544 39,000  Level FlightAware ADS-B
Tue 04:08:12 AM 62.1410 -2.4200 134° Southeast 473 544 39,000  Level FlightAware ADS-B
Tue 04:08:50 AM 62.0840 -2.2930 134° Southeast 474 545 39,000  Level FlightAware ADS-B
Tue 04:09:26 AM 62.0290 -2.1710 134° Southeast 475 547 39,000  Level FlightAware ADS-B
Tue 04:10:08 AM 61.9650 -2.0290 134° Southeast 474 545 39,000  Level FlightAware ADS-B
Tue 04:10:51 AM 61.8990 -1.8850 134° Southeast 473 544 39,000  Level FlightAware ADS-B
Tue 04:11:40 AM 61.8250 -1.7230 134° Southeast 471 542 39,000  Level FlightAware ADS-B
Tue 04:12:24 AM 61.7580 -1.5780 134° Southeast 470 541 39,000  Level FlightAware ADS-B
Tue 04:13:04 AM 61.7030 -1.4600 134° Southeast 469 540 39,000  Level FlightAware ADS-B
Tue 04:13:39 AM 61.6440 -1.3340 135° Southeast 469 540 39,000  Level FlightAware ADS-B
Tue 04:14:20 AM 61.5830 -1.2030 134° Southeast 470 541 39,000  Level FlightAware ADS-B
Tue 04:15:15 AM 61.5010 -1.0310 135° Southeast 465 535 39,000  Level FlightAware ADS-B
Tue 04:15:52 AM 61.4420 -0.9060 135° Southeast 470 541 39,000  Level FlightAware ADS-B
Tue 04:16:34 AM 61.3770 -0.7720 135° Southeast 471 542 39,000  Level FlightAware ADS-B
Tue 04:17:17 AM 61.3120 -0.6360 135° Southeast 470 541 39,000  Level FlightAware ADS-B
Tue 04:18:02 AM 61.2420 -0.4910 135° Southeast 471 542 39,000  Level FlightAware ADS-B
Tue 04:18:40 AM 61.1850 -0.3750 136° Southeast 472 543 39,000  Level FlightAware ADS-B
Tue 04:19:26 AM 61.1120 -0.2260 135° Southeast 473 544 39,000  Level FlightAware ADS-B
Tue 04:20:05 AM 61.0520 -0.1050 136° Southeast 474 545 39,000  Level FlightAware ADS-B
Tue 04:20:41 AM 60.9950 0.0090 136° Southeast 475 547 39,000  Level FlightAware ADS-B
Tue 04:21:21 AM 60.9310 0.1310 137° Southeast 475 547 39,000  Level FlightAware ADS-B
Tue 04:22:05 AM 60.8590 0.2640 138° Southeast 474 545 39,000  Level FlightAware ADS-B
Tue 04:22:39 AM 60.8040 0.3670 138° Southeast 474 545 39,000  Level FlightAware ADS-B
Tue 04:23:24 AM 60.7320 0.5010 138° Southeast 475 547 39,000  Level FlightAware ADS-B
Tue 04:24:04 AM 60.6670 0.6210 138° Southeast 474 545 39,000  Level FlightAware ADS-B
Tue 04:24:40 AM 60.6110 0.7240 138° Southeast 473 544 39,000  Level FlightAware ADS-B
Tue 04:25:24 AM 60.5380 0.8570 138° Southeast 471 542 39,000  Level FlightAware ADS-B
Tue 04:26:09 AM 60.4650 0.9890 138° Southeast 472 543 39,000  Level FlightAware ADS-B
Tue 04:27:05 AM 60.3840 1.1360 138° Southeast 472 543 39,000  Level FlightAware ADS-B
Tue 04:27:38 AM 60.3190 1.2510 139° Southeast 473 544 39,000  Level FlightAware ADS-B
Tue 04:28:20 AM 60.2560 1.3640 138° Southeast 474 545 39,000  Level FlightAware ADS-B
Tue 04:29:06 AM 60.1745 1.5076 138° Southeast 470 541 39,000  Level FlightAware UK
Tue 04:29:07 AM 60.1750 1.5060 138° Southeast 474 545 39,000  Level FlightAware ADS-B
Tue 04:29:38 AM 60.1230 1.5970 139° Southeast 474 545 39,000  Level FlightAware ADS-B
Tue 04:30:18 AM 60.0555 1.7161 139° Southeast 470 541 39,000  Level FlightAware UK
Tue 04:30:22 AM 60.0520 1.7220 139° Southeast 476 548 39,000  Level FlightAware ADS-B
Tue 04:31:04 AM 59.9810 1.8450 139° Southeast 477 549 39,000  Level FlightAware ADS-B
Tue 04:31:44 AM 59.9160 1.9580 139° Southeast 477 549 39,000  Level FlightAware ADS-B
Tue 04:32:18 AM 59.8559 2.0616 139° Southeast 474 545 39,000  Level FlightAware UK
Tue 04:32:28 AM 59.8410 2.0860 139° Southeast 478 550 39,000  Level FlightAware ADS-B
Tue 04:33:08 AM 59.7750 2.2000 139° Southeast 477 549 39,000  Level FlightAware ADS-B
Tue 04:33:52 AM 59.6990 2.3290 139° Southeast 478 550 39,000  Level FlightAware ADS-B
Tue 04:34:28 AM 59.6410 2.4260 140° Southeast 477 549 39,000  Level FlightAware ADS-B
Tue 04:35:08 AM 59.5740 2.5400 139° Southeast 476 548 39,000  Level FlightAware ADS-B
Tue 04:35:43 AM 59.5140 2.6399 139° Southeast 474 545 39,000  Level FlightAware UK
Tue 04:35:52 AM 59.5000 2.6620 139° Southeast 476 548 39,000  Level FlightAware ADS-B
Tue 04:36:24 AM 59.4460 2.7520 140° Southeast 475 547 39,000  Level FlightAware ADS-B
Tue 04:37:08 AM 59.3720 2.8750 140° Southeast 475 547 39,000  Level FlightAware ADS-B
Tue 04:37:48 AM 59.3070 2.9820 140° Southeast 475 547 39,000  Level FlightAware ADS-B
Tue 04:38:32 AM 59.2300 3.1070 140° Southeast 477 549 39,000  Level FlightAware ADS-B
Tue 04:39:14 AM 59.1590 3.2230 140° Southeast 478 550 39,000  Level FlightAware ADS-B
Tue 04:39:49 AM 59.1003 3.3192 140° Southeast 472 543 39,000  Level FlightAware UK
Tue 04:39:58 AM 59.0840 3.3440 140° Southeast 480 552 39,000  Level FlightAware ADS-B
Tue 04:40:19 AM 59.0494 3.4018 140° Southeast 472 543 39,000  Level FlightAware UK
Tue 04:40:55 AM 58.9879 3.5004 140° Southeast 474 545 39,000  Level FlightAware UK
Tue 04:41:25 AM 58.9366 3.5824 140° Southeast 472 543 39,000  Level FlightAware UK
Tue 04:42:01 AM 58.8746 3.6811 141° Southeast 474 545 39,000  Level FlightAware UK
Tue 04:42:30 AM 58.8490 3.7210 141° Southeast 481 554 39,000  Level FlightAware ADS-B
Tue 04:43:10 AM 58.7560 3.8670 141° Southeast 479 551 39,000  Level FlightAware ADS-B
Tue 04:44:01 AM 58.6681 4.0052 141° Southeast 470 541 39,000  Level FlightAware UK
Tue 04:44:31 AM 58.6210 4.0770 141° Southeast 478 550 39,000  Level FlightAware ADS-B
Tue 04:45:11 AM 58.5520 4.1850 141° Southeast 479 551 39,000  Level FlightAware ADS-B
Tue 04:45:13 AM 58.5441 4.1966 141° Southeast 470 541 39,000  Level FlightAware UK
Tue 04:45:43 AM 58.4936 4.2773 141° Southeast 470 541 39,000  Level FlightAware UK
Tue 04:45:56 AM 58.4770 4.3010 141° Southeast 479 551 39,000  Level FlightAware ADS-B
Tue 04:46:36 AM 58.4050 4.4110 141° Southeast 480 552 39,000  Level FlightAware ADS-B
Tue 04:47:21 AM 58.3270 4.5310 141° Southeast 475 547 39,000  Level FlightAware ADS-B
Tue 04:48:01 AM 58.2580 4.6360 141° Southeast 474 545 39,000  Level FlightAware ADS-B
Tue 04:48:46 AM 58.1800 4.7540 141° Southeast 475 547 39,000  Level FlightAware ADS-B
Tue 04:49:25 AM 58.1099 4.8631 141° Southeast 472 543 39,000  Level FlightAware UK
Tue 04:49:26 AM 58.1100 4.8590 141° Southeast 476 548 39,000  Level FlightAware ADS-B
Tue 04:50:11 AM 58.0310 4.9750 142° Southeast 476 548 39,000  Level FlightAware ADS-B
Tue 04:50:46 AM 57.9720 5.0640 141° Southeast 477 549 39,000  Level FlightAware ADS-B
Tue 04:51:26 AM 57.9000 5.1710 142° Southeast 477 549 39,000  Level FlightAware ADS-B
Tue 04:52:06 AM 57.8310 5.2710 142° Southeast 478 550 39,000  Level FlightAware ADS-B
Tue 04:52:46 AM 57.7590 5.3760 142° Southeast 478 550 39,000  Level FlightAware ADS-B
Tue 04:53:31 AM 57.6820 5.4890 142° Southeast 485 558 39,000  Level FlightAware ADS-B
Tue 04:54:11 AM 57.6100 5.5940 142° Southeast 486 559 39,000  Level FlightAware ADS-B
Tue 04:54:52 AM 57.5390 5.6960 142° Southeast 486 559 39,000  Level FlightAware ADS-B
Tue 04:55:36 AM 57.4590 5.8100 143° Southeast 486 559 39,000  Level FlightAware ADS-B
Tue 04:56:16 AM 57.3880 5.9120 142° Southeast 485 558 39,000  Level FlightAware ADS-B
Tue 04:56:56 AM 57.3160 6.0140 143° Southeast 485 558 39,000  Level FlightAware ADS-B
Tue 04:57:36 AM 57.2430 6.1160 143° Southeast 486 559 39,000  Level FlightAware ADS-B
Tue 04:58:16 AM 57.1730 6.2150 143° Southeast 485 558 39,000  Level FlightAware ADS-B
Tue 04:58:56 AM 57.1040 6.3110 143° Southeast 485 558 39,000  Level FlightAware ADS-B
Tue 04:59:36 AM 57.0290 6.4150 143° Southeast 484 557 39,000  Level FlightAware ADS-B
Tue 05:00:16 AM 56.9580 6.5130 143° Southeast 486 559 39,000  Level FlightAware ADS-B
Tue 05:01:01 AM 56.8790 6.6270 142° Southeast 479 551 39,000  Level FlightAware ADS-B
Tue 05:01:41 AM 56.8080 6.7300 142° Southeast 481 554 39,000  Level FlightAware ADS-B
Tue 05:02:21 AM 56.7390 6.8300 142° Southeast 488 562 39,000  Level FlightAware ADS-B
Tue 05:03:06 AM 56.6570 6.9470 142° Southeast 490 564 39,000  Level FlightAware ADS-B
Tue 05:03:50 AM 56.5830 7.0520 142° Southeast 491 565 39,000  Level FlightAware ADS-B
Tue 05:04:28 AM 56.5160 7.1470 142° Southeast 490 564 39,000  Level FlightAware ADS-B
Tue 05:05:14 AM 56.4320 7.2660 142° Southeast 490 564 39,000  Level FlightAware ADS-B
Tue 05:05:55 AM 56.3580 7.3690 142° Southeast 489 563 39,000  Level FlightAware ADS-B
Tue 05:06:18 AM 56.3150 7.4290 142° Southeast 490 564 39,000  Level FlightAware ADS-B
Tue 05:07:02 AM 56.2350 7.5390 143° Southeast 491 565 39,000  Level FlightAware ADS-B
Tue 05:07:46 AM 56.1560 7.6490 142° Southeast 492 566 39,000  Level FlightAware ADS-B
Tue 05:08:27 AM 56.0840 7.7480 142° Southeast 495 570 39,000  Level FlightAware ADS-B
Tue 05:09:10 AM 56.0060 7.8550 142° Southeast 494 568 39,000  Level FlightAware ADS-B
Tue 05:09:50 AM 55.9310 7.9560 143° Southeast 495 570 39,000  Level FlightAware ADS-B
Tue 05:10:27 AM 55.8660 8.0440 143° Southeast 494 568 39,000  Level FlightAware ADS-B
Tue 05:11:10 AM 55.7870 8.1500 143° Southeast 494 568 39,000  Level FlightAware ADS-B
Tue 05:11:50 AM 55.7170 8.2450 143° Southeast 494 568 39,000  Level FlightAware ADS-B
Tue 05:12:26 AM 55.6500 8.3350 143° Southeast 494 568 39,000  Level FlightAware ADS-B
Tue 05:13:08 AM 55.5730 8.4370 143° Southeast 494 568 39,000  Level FlightAware ADS-B
Tue 05:13:48 AM 55.5010 8.5320 143° Southeast 495 570 39,000  Level FlightAware ADS-B
Tue 05:14:32 AM 55.4190 8.6400 143° Southeast 495 570 39,000  Level FlightAware ADS-B
Tue 05:15:08 AM 55.3550 8.7230 144° Southeast 494 568 39,000  Level FlightAware ADS-B
Tue 05:15:57 AM 55.2640 8.8420 143° Southeast 493 567 39,000  Level FlightAware ADS-B
Tue 05:16:38 AM 55.1930 8.9340 143° Southeast 494 568 39,000  Level FlightAware ADS-B
Tue 05:17:13 AM 55.1240 9.0220 144° Southeast 494 568 39,000  Level FlightAware ADS-B
Tue 05:17:53 AM 55.0520 9.1150 143° Southeast 494 568 39,000  Level FlightAware ADS-B
Tue 05:18:35 AM 54.9750 9.2140 144° Southeast 493 567 39,000  Level FlightAware ADS-B
Tue 05:19:13 AM 54.9040 9.3040 144° Southeast 493 567 39,000  Level FlightAware ADS-B
Tue 05:19:53 AM 54.8300 9.3980 144° Southeast 491 565 39,000  Level FlightAware ADS-B
Tue 05:20:33 AM 54.7560 9.4900 144° Southeast 491 565 39,000  Level FlightAware ADS-B
Tue 05:21:13 AM 54.6850 9.5800 144° Southeast 491 565 39,000  Level FlightAware ADS-B
Tue 05:22:01 AM 54.5960 9.6910 144° Southeast 492 566 39,000  Level FlightAware ADS-B
Tue 05:22:42 AM 54.5220 9.7830 144° Southeast 492 566 39,000  Level FlightAware ADS-B
Tue 05:23:23 AM 54.4450 9.8780 144° Southeast 493 567 39,000  Level FlightAware ADS-B
Tue 05:24:07 AM 54.3620 9.9800 144° Southeast 493 567 39,000  Level FlightAware ADS-B
Tue 05:24:43 AM 54.2970 10.0600 144° Southeast 493 567 39,000  Level FlightAware ADS-B
Tue 05:25:23 AM 54.2240 10.1490 145° Southeast 492 566 39,000  Level FlightAware ADS-B
Tue 05:26:07 AM 54.1410 10.2490 145° Southeast 492 566 39,000 -1,297 Level FlightAware ADS-B
Tue 05:26:37 AM 54.0840 10.3180 145° Southeast 507 583 37,400 -2,605 Descending FlightAware ADS-B
Tue 05:27:23 AM 53.9970 10.4230 145° Southeast 500 575 35,700 -2,093 Descending FlightAware ADS-B
Tue 05:28:03 AM 53.9250 10.5090 145° Southeast 488 562 34,400 -1,976 Descending FlightAware ADS-B
Tue 05:28:45 AM 53.8470 10.6040 144° Southeast 478 550 33,000 -2,512 Descending FlightAware ADS-B
Tue 05:29:29 AM 53.7770 10.7190 136° Southeast 485 558 30,800 -2,786 Descending FlightAware ADS-B
Tue 05:30:09 AM 53.7150 10.8280 134° Southeast 479 551 29,100 -2,475 Descending FlightAware ADS-B
Tue 05:30:49 AM 53.6540 10.9360 134° Southeast 472 543 27,500 -2,385 Descending FlightAware ADS-B
Tue 05:31:27 AM 53.5980 11.0330 134° Southeast 466 536 26,000 -2,268 Descending FlightAware ADS-B
Tue 05:32:11 AM 53.5320 11.1470 134° Southeast 449 517 24,400 -2,175 Descending FlightAware ADS-B
Tue 05:32:47 AM 53.4820 11.2380 133° Southeast 442 509 23,100 -2,132 Descending FlightAware ADS-B
Tue 05:33:27 AM 53.4390 11.3510 123° Southeast 430 495 21,700 -2,053 Descending FlightAware ADS-B
Tue 05:34:03 AM 53.4010 11.4500 123° Southeast 422 486 20,500 -1,829 Descending FlightAware ADS-B
Tue 05:34:49 AM 53.3540 11.5710 123° Southeast 407 468 19,200 -1,756 Descending FlightAware ADS-B
Tue 05:35:25 AM 53.3170 11.6640 124° Southeast 390 449 18,100 -1,816 Descending FlightAware ADS-B
Tue 05:36:05 AM 53.2780 11.7650 123° Southeast 387 445 16,900 -1,835 Descending FlightAware ADS-B
Tue 05:36:50 AM 53.2340 11.8770 123° Southeast 378 435 15,500 -1,765 Descending FlightAware ADS-B
Tue 05:37:30 AM 53.1970 11.9720 123° Southeast 367 422 14,400 -1,765 Descending FlightAware ADS-B
Tue 05:38:15 AM 53.1540 12.0790 124° Southeast 360 414 13,000 -1,765 Descending FlightAware ADS-B
Tue 05:38:55 AM 53.1180 12.1700 123° Southeast 358 412 11,900 -1,341 Descending FlightAware ADS-B
Tue 05:39:40 AM 53.0780 12.2710 123° Southeast 332 382 11,100 -675 Descending FlightAware ADS-B
Tue 05:40:15 AM 53.0480 12.3450 124° Southeast 306 352 11,000 -80 Descending FlightAware ADS-B
Tue 05:40:55 AM 53.0170 12.4230 123° Southeast 305 351 11,000 -75 Level FlightAware ADS-B
Tue 05:41:35 AM 52.9850 12.5040 123° Southeast 307 353 10,900 -525 Descending FlightAware ADS-B
Tue 05:42:15 AM 52.9530 12.5820 124° Southeast 306 352 10,300 -720 Descending FlightAware ADS-B
Tue 05:42:50 AM 52.9260 12.6490 124° Southeast 303 349 10,000 -225 Descending FlightAware ADS-B
Tue 05:43:35 AM 52.8900 12.7380 124° Southeast 304 350 10,000  Level FlightAware ADS-B
Tue 05:44:15 AM 52.8580 12.8160 124° Southeast 304 350 10,000 -167 Level FlightAware ADS-B
Tue 05:44:47 AM 52.8340 12.8740 124° Southeast 292 336 9,800 -400 Descending FlightAware ADS-B
Tue 05:45:15 AM 52.8130 12.9260 124° Southeast 275 316 9,600 -474 Descending FlightAware ADS-B
Tue 05:45:25 AM 52.8050 12.9450 125° Southeast 270 311 9,500 -900 Descending FlightAware ADS-B
Tue 05:45:55 AM 52.7830 12.9980 124° Southeast 267 307 9,000 -933 Descending FlightAware ADS-B
Tue 05:46:10 AM 52.7730 13.0230 123° Southeast 267 307 8,800 -800 Descending FlightAware ADS-B
Tue 05:46:40 AM 52.7550 13.0660 125° Southeast 265 305 8,400 -1,091 Descending FlightAware ADS-B
Tue 05:47:05 AM 52.7300 13.1100 133° Southeast 265 305 7,800 -1,119 Descending FlightAware ADS-B
Tue 05:47:39 AM 52.6870 13.1120 178° South 263 303 7,300 -968 Descending FlightAware ADS-B
Tue 05:48:07 AM 52.6540 13.1110 181° South 262 302 6,800 -955 Descending FlightAware ADS-B
Tue 05:48:23 AM 52.6350 13.1010 198° South 254 292 6,600 -857 Descending FlightAware ADS-B
Tue 05:48:35 AM 52.6260 13.0830 231° Southwest 246 283 6,400 -1,071 Descending FlightAware ADS-B
Tue 05:48:51 AM 52.6220 13.0580 255° West 239 275 6,100 -1,071 Descending FlightAware ADS-B
Tue 05:49:03 AM 52.6200 13.0330 263° West 238 274 5,900 -811 Descending FlightAware ADS-B
Tue 05:49:28 AM 52.6150 12.9910 259° West 235 270 5,600 -818 Descending FlightAware ADS-B
Tue 05:49:47 AM 52.6120 12.9620 260° West 234 269 5,300 -1,080 Descending FlightAware ADS-B
Tue 05:50:18 AM 52.6060 12.9040 260° West 236 272 4,700 -857 Descending FlightAware ADS-B
Tue 05:50:43 AM 52.6020 12.8640 261° West 225 259 4,500 -737 Descending FlightAware ADS-B
Tue 05:51:15 AM 52.5830 12.8180 236° Southwest 223 257 4,000 -714 Descending FlightAware ADS-B
Tue 05:51:25 AM 52.5730 12.8160 187° South 224 258 4,000 -400 Level FlightAware ADS-B
Tue 05:51:45 AM 52.5540 12.8270 161° South 228 262 3,800 -514 Descending FlightAware ADS-B
Tue 05:52:00 AM 52.5440 12.8510 124° Southeast 232 267 3,700 -600 Descending FlightAware ADS-B
Tue 05:52:25 AM 52.5380 12.8940 103° East 227 261 3,400 -600 Descending FlightAware ADS-B
Tue 05:52:40 AM 52.5340 12.9180 105° East 228 262 3,300 -533 Descending FlightAware ADS-B
Tue 05:53:10 AM 52.5290 12.9680 99° East 218 251 3,000 -436 Descending FlightAware ADS-B
Tue 05:53:35 AM 52.5320 13.0090 83° East 202 232 2,900 -436 Descending FlightAware ADS-B
Tue 05:54:05 AM 52.5360 13.0510 81° East 187 215 2,600 -840 Descending FlightAware ADS-B
Tue 05:54:25 AM 52.5390 13.0790 80° East 184 212 2,200 -1,021 Descending FlightAware ADS-B
Tue 05:54:52 AM 52.5420 13.1130 82° East 171 197 1,800 -764 Descending FlightAware ADS-B
Tue 05:55:20 AM 52.5460 13.1470 79° East 156 180 1,500 -837 Descending FlightAware ADS-B
Tue 05:55:35 AM 52.5480 13.1650 80° East 147 169 1,200 -800 Descending FlightAware ADS-B
Tue 05:56:05 AM 52.5510 13.1970 81° East 132 152 900 -600 Descending FlightAware ADS-B
Tue 05:56:25 AM 52.5520 13.2140 84° East 129 148 700 -667 Descending FlightAware ADS-B
Tue 05:56:50 AM 52.5550 13.2390 79° East 130 150 400 -692 Descending FlightAware ADS-B
Tue 05:57:17 AM 52.5570 13.2640 82° East 136 157 100 -667 Descending FlightAware ADS-B
Tue 05:57:47 AM 52.5600 13.2880 78° East 74 85 -200 Descending FlightAware ADS-B
Tue 05:58:30 AM 52.5600 13.2990 90° East 19 22  Level FlightAware ADS-B
Tue 05:58:45 AM 52.5590 13.3010 129° Southeast 10 12  Level FlightAware ADS-B
Tue 05:59:25 AM 52.5570 13.3000 197° South 12 14  Level FlightAware ADS-B
Tue 05:59:40 AM 52.5570 13.2990 270° West 15 17  Level FlightAware ADS-B
Tue 06:00:05 AM 52.5570 13.2960 270° West 12 14  Level FlightAware ADS-B
Tue 06:00:35 AM 52.5570 13.2940 270° West 8 9  Level FlightAware ADS-B
Tue 06:01:00 AM 52.5570 13.2920 270° West 7 8  Level FlightAware ADS-B
Tue 06:01:20 AM 52.5560 13.2920 180° South  Level FlightAware ADS-B
Tue 06:02:05 AM 52.5550 13.2920 180° South 5 6  Level FlightAware ADS-B

Login

Don't have an account? Register now (free) for customized features, flight alerts, and more!